Pillsbury, ND

1:52 PM CDT on May 06, 2015 (GMT -0500)
Jamestown Municipal | | Change Station
CLOSE
Current Station
Airport
Location: Jamestown,
Elevation: 1499 ft
Nearby Weather Stations

Elev 1499 ft 46.93 °N, 98.67 °W | Updated 56 minutes ago

Rain
Rain
62 °F
Feels Like 62 °F
N
17
Wind Variable Wind from SE
Gusts 26 mph

Today
High -- | Low -- °F
--% Chance of Precip.
Yesterday
High -- | Low -- °F
Precip. -- in
6:07 AM 8:48 PM
Waning Gibbous, 93% visible
Pressure 29.78 in
Visibility 5.0 miles
Clouds Overcast 800 ft
Dew Point 59 °F
Humidity 90%
Rainfall 0.04 in
Snow Depth Not available.
UV 3 out of 12
Pollen 5.20 out of 12
Air Quality Not available.
Flu Activity Regional
METAR KJMS 061756Z AUTO 13015G23KT 5SM BR OVC008 17/15 A2978 RMK AO2 RAB1657E08 CIG 005V010 SLP083 P0000 60002 T01670150 10167 20133 58018

More Conditions Fewer Conditions

Pressure 29.78 in
Visibility 5.0 miles
Clouds Overcast 800 ft
Dew Point 59 °F
Humidity 90%
Rainfall 0.04 in
Snow Depth Not available.
UV 3 out of 12
Pollen 5.20 out of 12
Air Quality Not available.
Flu Activity Regional
METAR KJMS 061756Z AUTO 13015G23KT 5SM BR OVC008 17/15 A2978 RMK AO2 RAB1657E08 CIG 005V010 SLP083 P0000 60002 T01670150 10167 20133 58018

More Conditions Fewer Conditions

10-Day Weather Forecast

Almanac

Astronomy

May. 06, 2015 Rise Set
Actual Time
Civil Twilight
Nautical Twilight
Astronomical Twilight
Moon
Length of Visible Light
Length of Day
Tomorrow will be .
, % of the Moon is Illuminated

Today's Extremes

State Highs State Lows

Community

WunderPhotos

Upload Photos

1,818,990 photos uploaded!

WunderBlogs® & News

Nearby

Air Quality

  Air Quality AQ Index Pollutant
Not available.

Snow Depth

Station Depth Elevation

Earthquake Activity

City Distance Mag. Time & Date
Minimum magnitude displayed is 2.5.

Coastal Water Temperatures

Place Temperature

Stations

Nearby Weather Stations

Station Location Temp. Windchill Dew Point Humidity Wind Precip. Elev Updated Type